createdAt,value
2023-04-14T00:02:22.213Z,75.10
2023-04-14T00:05:24.287Z,72.40
2023-04-14T00:08:25.928Z,71.40
2023-04-14T00:11:27.669Z,72.70
2023-04-14T00:21:10.266Z,69.40
2023-04-14T00:24:12.113Z,71.20
2023-04-14T00:27:13.797Z,68.90
2023-04-14T00:30:16.079Z,68.90
2023-04-14T00:33:17.698Z,70.80
2023-04-14T00:36:19.428Z,70.60
2023-04-14T00:39:21.286Z,65.00
2023-04-14T00:42:23.142Z,67.50
2023-04-14T00:45:24.891Z,62.80
2023-04-14T00:48:26.554Z,63.90
2023-04-14T00:51:28.365Z,62.60
2023-04-14T00:54:30.891Z,66.00
2023-04-14T00:57:32.585Z,68.70
2023-04-14T01:00:34.595Z,73.00
2023-04-14T01:03:36.426Z,72.50
2023-04-14T01:06:38.254Z,73.20
2023-04-14T01:09:39.915Z,76.20
2023-04-14T01:12:59.997Z,72.60
2023-04-14T01:16:05.340Z,71.20
2023-04-14T01:19:41.512Z,76.40
2023-04-14T01:22:49.833Z,68.70
2023-04-14T01:26:13.571Z,78.60
2023-04-14T01:29:36.175Z,66.30
2023-04-14T01:32:44.477Z,71.00
2023-04-14T01:35:50.326Z,72.60
2023-04-14T01:38:53.301Z,67.00
2023-04-14T01:41:57.144Z,69.70
2023-04-14T01:45:04.425Z,64.60
2023-04-14T01:48:06.729Z,72.30
2023-04-14T01:51:09.471Z,68.30
2023-04-14T01:54:11.729Z,62.60
2023-04-14T01:57:14.917Z,64.00
2023-04-14T02:00:20.869Z,62.20
2023-04-14T02:03:23.629Z,65.00
2023-04-14T02:06:25.861Z,62.10
2023-04-14T02:09:28.991Z,67.10
2023-04-14T02:12:30.924Z,70.10
2023-04-14T02:15:33.490Z,131.20
2023-04-14T02:18:35.675Z,81.10
2023-04-14T02:21:38.160Z,60.90
2023-04-14T02:24:39.857Z,112.10
2023-04-14T02:27:53.002Z,200.20
2023-04-14T02:30:56.398Z,257.10
2023-04-14T02:33:59.147Z,196.00
2023-04-14T02:37:04.165Z,65.60
2023-04-14T02:40:16.056Z,63.60
2023-04-14T02:43:20.859Z,84.90
2023-04-14T02:46:23.922Z,98.50
2023-04-14T02:49:25.932Z,73.20
2023-04-14T02:52:28.268Z,71.70
2023-04-14T02:55:31.090Z,72.80
2023-04-14T02:58:33.257Z,82.80
2023-04-14T03:01:35.968Z,71.40
2023-04-14T03:04:38.722Z,69.50
2023-04-14T03:07:42.469Z,157.20
2023-04-14T03:10:45.767Z,81.20
2023-04-14T03:13:49.351Z,76.10
2023-04-14T03:16:53.503Z,147.70
2023-04-14T03:19:56.168Z,80.40
2023-04-14T03:23:01.836Z,150.90
2023-04-14T03:26:03.831Z,100.60
2023-04-14T03:29:05.991Z,123.00
2023-04-14T03:32:09.238Z,95.00
2023-04-14T03:35:11.491Z,81.00
2023-04-14T03:38:15.716Z,81.30
2023-04-14T03:41:18.309Z,106.50
2023-04-14T03:44:20.124Z,85.10
2023-04-14T03:47:21.801Z,92.80
2023-04-14T03:50:27.269Z,95.50
2023-04-14T03:53:33.359Z,82.80
2023-04-14T03:56:35.609Z,83.60
2023-04-14T03:59:39.379Z,78.00
2023-04-14T04:02:42.993Z,70.80
2023-04-14T04:05:45.508Z,64.50
2023-04-14T04:08:48.452Z,57.10
2023-04-14T04:11:52.261Z,51.70
2023-04-14T04:14:53.897Z,51.30
2023-04-14T04:24:00.862Z,53.50
2023-04-14T04:27:02.645Z,59.80
2023-04-14T04:30:08.228Z,61.20
2023-04-14T04:33:10.780Z,63.20
2023-04-14T04:36:13.318Z,65.20
2023-04-14T04:39:15.054Z,65.30
2023-04-14T04:42:16.712Z,62.00
2023-04-14T04:48:22.421Z,63.10
2023-04-14T04:54:25.546Z,66.30
2023-04-14T05:00:28.840Z,61.70
2023-04-14T05:06:35.181Z,68.10
2023-04-14T05:09:37.017Z,64.40
2023-04-14T05:12:38.812Z,63.70
2023-04-14T05:15:40.469Z,69.70
2023-04-14T05:18:43.167Z,66.50
2023-04-14T05:21:44.792Z,63.50
2023-04-14T05:24:52.359Z,68.10
2023-04-14T05:27:54.007Z,67.10
2023-04-14T05:30:55.884Z,70.10
2023-04-14T05:33:57.685Z,71.80
2023-04-14T05:36:59.436Z,71.40
2023-04-14T05:40:01.178Z,75.60
2023-04-14T05:43:02.990Z,74.50
2023-04-14T05:46:04.819Z,67.00
2023-04-14T05:49:06.662Z,64.80
2023-04-14T05:52:08.605Z,64.20
2023-04-14T05:55:10.700Z,62.00
2023-04-14T05:58:12.446Z,63.90
2023-04-14T06:01:14.088Z,65.30
2023-04-14T06:04:15.951Z,66.20
2023-04-14T06:07:17.802Z,62.30
2023-04-14T06:10:19.457Z,60.40
2023-04-14T06:13:21.075Z,58.20
2023-04-14T06:16:22.768Z,54.70
2023-04-14T06:19:24.483Z,57.10
2023-04-14T06:22:26.201Z,55.60
2023-04-14T06:25:27.910Z,55.30
2023-04-14T06:28:29.553Z,52.30
2023-04-14T06:31:31.214Z,51.90
2023-04-14T06:34:32.977Z,46.20
2023-04-14T06:37:34.914Z,43.40
2023-04-14T06:40:36.557Z,45.20
2023-04-14T06:43:38.226Z,44.40
2023-04-14T06:46:39.826Z,43.60
2023-04-14T06:49:41.497Z,40.80
2023-04-14T06:52:43.145Z,40.10
2023-04-14T06:55:44.725Z,42.70
2023-04-14T06:58:46.417Z,38.00
2023-04-14T07:01:48.374Z,34.00
2023-04-14T07:04:50.147Z,34.80
2023-04-14T07:07:51.835Z,31.50
2023-04-14T07:10:59.670Z,37.30
2023-04-14T07:14:01.418Z,30.80
2023-04-14T07:17:03.258Z,31.00
2023-04-14T07:20:05.448Z,31.50
2023-04-14T07:23:07.036Z,28.30
2023-04-14T07:26:08.771Z,30.10
2023-04-14T07:29:10.429Z,29.40
2023-04-14T07:32:12.142Z,30.20
2023-04-14T07:35:14.391Z,32.40
2023-04-14T07:38:16.187Z,31.00
2023-04-14T07:41:18.242Z,31.90
2023-04-14T07:44:20.013Z,33.70
2023-04-14T07:47:21.859Z,28.40
2023-04-14T07:50:23.845Z,29.60
2023-04-14T07:53:26.242Z,29.30
2023-04-14T07:56:27.941Z,29.70
2023-04-14T07:59:29.758Z,30.60
2023-04-14T08:02:31.414Z,26.00
2023-04-14T08:05:33.846Z,26.00
2023-04-14T08:08:35.970Z,29.60
2023-04-14T08:11:37.682Z,27.80
2023-04-14T08:14:39.338Z,26.00
2023-04-14T08:17:41.093Z,25.70
2023-04-14T08:20:42.803Z,27.80
2023-04-14T08:23:44.451Z,25.40
2023-04-14T08:26:46.064Z,25.10
2023-04-14T08:29:49.122Z,22.90
2023-04-14T08:32:50.845Z,22.00
2023-04-14T08:35:59.502Z,23.80
2023-04-14T08:39:02.437Z,20.80
2023-04-14T08:42:04.408Z,20.80
2023-04-14T08:45:06.683Z,23.10
2023-04-14T08:48:08.614Z,15.90
2023-04-14T08:51:19.830Z,14.80
2023-04-14T08:54:21.650Z,13.40
2023-04-14T08:57:25.402Z,13.00
2023-04-14T09:00:27.301Z,14.50
2023-04-14T09:03:29.711Z,17.20
2023-04-14T09:06:32.375Z,14.80
2023-04-14T09:09:34.205Z,13.30
2023-04-14T09:12:36.685Z,13.10
2023-04-14T09:15:38.353Z,14.50
2023-04-14T09:18:40.433Z,12.10
2023-04-14T09:21:53.665Z,13.20
2023-04-14T09:24:57.361Z,17.20
2023-04-14T09:27:59.401Z,10.90
2023-04-14T09:31:01.162Z,12.00
2023-04-14T09:34:03.153Z,11.90
2023-04-14T09:37:07.460Z,13.40
2023-04-14T09:40:09.508Z,12.50
2023-04-14T09:43:27.442Z,14.30
2023-04-14T09:46:29.194Z,13.60
2023-04-14T09:49:31.369Z,12.40
2023-04-14T09:52:41.866Z,14.10
2023-04-14T09:55:45.607Z,13.80
2023-04-14T09:58:48.598Z,14.50
2023-04-14T10:01:50.412Z,14.90
2023-04-14T10:05:03.950Z,11.20
2023-04-14T10:08:06.000Z,13.20
2023-04-14T10:11:23.586Z,14.00
2023-04-14T10:14:25.196Z,11.40
2023-04-14T10:17:29.506Z,10.20
2023-04-14T10:20:32.421Z,12.10
2023-04-14T10:23:36.754Z,14.00
2023-04-14T10:26:38.597Z,12.10
2023-04-14T10:29:41.125Z,12.30
2023-04-14T10:32:44.934Z,14.00
2023-04-14T10:35:48.631Z,12.90
2023-04-14T10:38:50.269Z,14.30
2023-04-14T10:41:53.038Z,13.60
2023-04-14T10:45:04.542Z,12.00
2023-04-14T10:48:06.261Z,12.20
2023-04-14T10:51:09.947Z,11.90
2023-04-14T10:54:18.403Z,9.50
2023-04-14T10:57:24.672Z,10.90
2023-04-14T11:00:28.092Z,7.80
2023-04-14T11:03:44.469Z,10.80
2023-04-14T11:06:46.346Z,10.70
2023-04-14T11:09:49.181Z,11.60
2023-04-14T11:13:26.618Z,11.70
2023-04-14T11:16:29.175Z,11.30
2023-04-14T11:19:32.243Z,14.30
2023-04-14T11:22:38.110Z,13.70
2023-04-14T11:25:39.794Z,15.70
2023-04-14T11:28:43.063Z,13.70
2023-04-14T11:31:44.859Z,13.30
2023-04-14T11:34:46.629Z,14.70
2023-04-14T11:37:48.486Z,14.10
2023-04-14T11:40:51.161Z,11.30
2023-04-14T11:43:52.715Z,13.70
2023-04-14T11:46:54.533Z,11.20
2023-04-14T11:49:56.352Z,12.00
2023-04-14T11:52:59.581Z,11.30
2023-04-14T11:56:01.214Z,13.30
2023-04-14T11:59:05.023Z,14.30
2023-04-14T12:02:11.844Z,11.80
2023-04-14T12:05:19.705Z,11.90
2023-04-14T12:08:23.847Z,13.10
2023-04-14T12:11:25.830Z,12.50
2023-04-14T12:14:27.651Z,12.10
2023-04-14T12:17:30.204Z,13.00
2023-04-14T12:21:02.194Z,16.10
2023-04-14T12:24:03.984Z,14.50
2023-04-14T12:27:06.825Z,15.50
2023-04-14T12:30:08.898Z,17.40
2023-04-14T12:33:11.661Z,17.20
2023-04-14T12:36:13.528Z,15.70
2023-04-14T12:39:15.198Z,16.90
2023-04-14T12:42:16.834Z,14.70
2023-04-14T12:45:18.430Z,16.50
2023-04-14T12:48:20.317Z,16.90
2023-04-14T12:51:24.448Z,11.80
2023-04-14T12:54:26.235Z,12.30
2023-04-14T12:57:27.822Z,13.80
2023-04-14T13:00:29.521Z,15.10
2023-04-14T13:03:41.712Z,14.50
2023-04-14T13:06:43.521Z,12.90
2023-04-14T13:09:45.144Z,18.50
2023-04-14T13:12:46.765Z,15.50
2023-04-14T13:16:12.447Z,17.10
2023-04-14T13:19:10.009Z,10.80
2023-04-14T13:22:13.789Z,14.50
2023-04-14T13:25:15.537Z,11.50
2023-04-14T13:28:17.284Z,13.20
2023-04-14T13:31:18.939Z,14.60
2023-04-14T13:34:20.607Z,15.30
2023-04-14T13:37:22.283Z,13.90
2023-04-14T13:40:23.913Z,13.40
2023-04-14T13:43:25.578Z,13.40
2023-04-14T13:46:27.234Z,16.30
2023-04-14T13:49:28.860Z,13.30
2023-04-14T13:52:30.542Z,16.90
2023-04-14T13:55:32.214Z,15.90
2023-04-14T13:58:33.826Z,15.40
2023-04-14T14:01:35.565Z,15.70
2023-04-14T14:04:37.584Z,19.30
2023-04-14T14:07:39.415Z,21.50
2023-04-14T14:10:41.386Z,15.30
2023-04-14T14:13:43.102Z,18.90
2023-04-14T14:16:44.792Z,19.20
2023-04-14T14:19:46.489Z,18.10
2023-04-14T14:22:48.151Z,15.40
2023-04-14T14:25:49.812Z,15.60
2023-04-14T14:28:51.524Z,18.90
2023-04-14T14:31:53.516Z,16.00
2023-04-14T14:34:55.235Z,19.40
2023-04-14T14:37:58.405Z,19.40
2023-04-14T14:41:00.672Z,15.60
2023-04-14T14:44:02.364Z,15.20
2023-04-14T14:47:04.875Z,17.80
2023-04-14T14:50:08.689Z,21.50
2023-04-14T14:53:10.540Z,15.70
2023-04-14T14:56:12.269Z,17.30
2023-04-14T14:59:13.874Z,17.70
2023-04-14T15:02:15.618Z,20.10
2023-04-14T15:05:17.543Z,17.10
2023-04-14T15:08:19.546Z,19.60
2023-04-14T15:11:21.112Z,20.00
2023-04-14T15:14:23.992Z,19.20
2023-04-14T15:17:25.650Z,18.00
2023-04-14T15:20:27.289Z,18.80
2023-04-14T15:23:29.009Z,23.40
2023-04-14T15:26:30.645Z,23.80
2023-04-14T15:29:32.318Z,22.40
2023-04-14T15:32:33.968Z,24.30
2023-04-14T15:35:37.606Z,24.30
2023-04-14T15:38:41.317Z,21.50
2023-04-14T15:41:43.193Z,18.70
2023-04-14T15:44:44.840Z,22.30
2023-04-14T15:47:46.535Z,30.10
2023-04-14T15:50:48.199Z,25.50
2023-04-14T15:53:51.695Z,20.90
2023-04-14T15:56:53.537Z,22.50
2023-04-14T15:59:55.189Z,21.20
2023-04-14T16:02:57.230Z,24.90
2023-04-14T16:06:01.354Z,21.70
2023-04-14T16:09:03.569Z,19.30
2023-04-14T16:12:05.691Z,21.20
2023-04-14T16:15:07.919Z,29.70
2023-04-14T16:18:09.612Z,26.40
2023-04-14T16:21:11.440Z,27.20
2023-04-14T16:24:13.063Z,25.50
2023-04-14T16:27:14.680Z,25.70
2023-04-14T16:30:16.341Z,25.30
2023-04-14T16:33:18.049Z,23.90
2023-04-14T16:36:19.841Z,23.40
2023-04-14T16:39:21.508Z,23.80
2023-04-14T16:42:24.238Z,21.30
2023-04-14T16:45:25.884Z,23.30
2023-04-14T16:48:27.766Z,21.40
2023-04-14T16:51:29.674Z,24.30
2023-04-14T16:54:31.289Z,20.10
2023-04-14T16:57:32.937Z,22.10
2023-04-14T17:00:34.810Z,24.70
2023-04-14T17:03:39.618Z,23.90
2023-04-14T17:06:41.288Z,21.10
2023-04-14T17:09:43.120Z,22.60
2023-04-14T17:12:44.714Z,26.70
2023-04-14T17:15:47.098Z,22.50
2023-04-14T17:18:51.049Z,26.20
2023-04-14T17:21:52.783Z,22.90
2023-04-14T17:24:54.865Z,25.90
2023-04-14T17:27:56.438Z,25.90
2023-04-14T17:30:58.208Z,24.80
2023-04-14T17:34:00.181Z,27.30
2023-04-14T17:37:02.550Z,26.60
2023-04-14T17:40:04.697Z,26.90
2023-04-14T17:43:06.298Z,28.10
2023-04-14T17:46:08.697Z,27.40
2023-04-14T17:49:10.592Z,26.90
2023-04-14T17:52:12.290Z,28.90
2023-04-14T17:55:14.013Z,30.30
2023-04-14T17:58:15.846Z,26.60
2023-04-14T18:01:19.746Z,24.50
2023-04-14T18:04:21.730Z,24.00
2023-04-14T18:07:23.350Z,25.30
2023-04-14T18:10:25.019Z,23.30
2023-04-14T18:13:26.667Z,24.90
2023-04-14T18:16:28.400Z,26.60
2023-04-14T18:19:30.025Z,25.40
2023-04-14T18:22:35.657Z,21.20
2023-04-14T18:28:41.976Z,21.50
2023-04-14T18:31:43.725Z,21.10
2023-04-14T18:34:45.533Z,23.50
2023-04-14T18:37:47.622Z,20.10
2023-04-14T18:40:49.361Z,19.30
2023-04-14T18:43:51.034Z,18.60
2023-04-14T18:46:52.679Z,20.60
2023-04-14T18:49:54.536Z,19.00
2023-04-14T18:52:56.128Z,18.50
2023-04-14T18:55:57.992Z,19.30
2023-04-14T18:58:59.952Z,19.00
2023-04-14T19:02:02.216Z,18.10
2023-04-14T19:05:04.468Z,18.50
2023-04-14T19:08:06.390Z,17.10
2023-04-14T19:11:08.120Z,18.50
2023-04-14T19:14:09.733Z,17.40
2023-04-14T19:17:11.642Z,17.70
2023-04-14T19:20:13.453Z,16.00
2023-04-14T19:23:15.085Z,17.30
2023-04-14T19:26:16.976Z,18.50
2023-04-14T19:29:18.559Z,16.80
2023-04-14T19:32:20.230Z,18.30
2023-04-14T19:35:21.937Z,16.10
2023-04-14T19:38:26.739Z,15.00
2023-04-14T19:41:28.495Z,12.80
2023-04-14T19:44:30.210Z,15.10
2023-04-14T19:47:31.902Z,11.60
2023-04-14T19:50:33.621Z,12.60
2023-04-14T19:53:35.365Z,12.80
2023-04-14T19:56:37.764Z,10.00
2023-04-14T19:59:39.720Z,17.00
2023-04-14T20:02:41.620Z,15.30
2023-04-14T20:05:43.332Z,13.30
2023-04-14T20:08:45.643Z,14.60
2023-04-14T20:11:47.319Z,20.40
2023-04-14T20:14:48.888Z,17.10
2023-04-14T20:17:50.723Z,17.30
2023-04-14T20:20:52.300Z,15.30
2023-04-14T20:23:53.949Z,14.90
2023-04-14T20:26:55.568Z,15.20
2023-04-14T20:29:57.415Z,18.60
2023-04-14T20:33:00.900Z,20.30
2023-04-14T20:36:02.726Z,13.90
2023-04-14T20:39:05.396Z,16.10
2023-04-14T20:42:06.987Z,18.90
2023-04-14T20:45:09.005Z,13.00
2023-04-14T20:48:10.587Z,14.80
2023-04-14T20:51:12.266Z,13.50
2023-04-14T20:54:16.176Z,15.50
2023-04-14T20:57:17.865Z,19.60
2023-04-14T21:00:19.581Z,15.20
2023-04-14T21:03:21.337Z,21.30
2023-04-14T21:06:23.491Z,16.10
2023-04-14T21:09:25.187Z,21.00
2023-04-14T21:12:35.243Z,19.80
2023-04-14T21:15:52.077Z,17.90
2023-04-14T21:18:58.886Z,16.70
2023-04-14T21:22:00.668Z,17.30
2023-04-14T21:25:02.430Z,17.80
2023-04-14T21:28:04.326Z,20.10
2023-04-14T21:31:06.579Z,17.40
2023-04-14T21:34:08.415Z,16.80
2023-04-14T21:37:10.533Z,16.40
2023-04-14T21:40:12.561Z,17.80
2023-04-14T21:43:14.242Z,14.00
2023-04-14T21:46:16.006Z,17.00
2023-04-14T21:49:17.875Z,17.30
2023-04-14T21:52:19.499Z,16.20
2023-04-14T21:55:21.101Z,18.20
2023-04-14T21:58:22.852Z,16.90
2023-04-14T22:01:24.822Z,19.50
2023-04-14T22:04:35.838Z,20.20
2023-04-14T22:07:38.830Z,20.70
2023-04-14T22:10:40.491Z,20.30
2023-04-14T22:13:42.303Z,18.80
2023-04-14T22:16:44.112Z,21.60
2023-04-14T22:19:45.701Z,18.60
2023-04-14T22:22:47.615Z,18.80
2023-04-14T22:25:49.214Z,19.80
2023-04-14T22:28:51.006Z,19.20
2023-04-14T22:31:52.779Z,18.00
2023-04-14T22:34:54.653Z,19.50
2023-04-14T22:37:56.521Z,19.30
2023-04-14T22:40:58.314Z,20.10
2023-04-14T22:44:00.144Z,21.30
2023-04-14T22:47:01.883Z,18.00
2023-04-14T22:50:03.616Z,20.40
2023-04-14T22:53:05.694Z,16.70
2023-04-14T22:56:07.440Z,18.70
2023-04-14T22:59:09.031Z,17.00
2023-04-14T23:02:10.947Z,16.20
2023-04-14T23:05:13.171Z,18.70
2023-04-14T23:08:14.884Z,19.80
2023-04-14T23:11:19.158Z,16.70
2023-04-14T23:14:22.121Z,17.50
2023-04-14T23:17:23.804Z,17.80
2023-04-14T23:20:25.507Z,15.70
2023-04-14T23:23:30.336Z,14.20
2023-04-14T23:26:32.072Z,11.90
2023-04-14T23:29:33.701Z,11.00
2023-04-14T23:32:35.376Z,8.20
2023-04-14T23:35:37.105Z,11.30
2023-04-14T23:38:38.742Z,9.60
2023-04-14T23:41:40.436Z,8.60
2023-04-14T23:44:42.302Z,8.50
2023-04-14T23:47:43.971Z,6.80
2023-04-14T23:51:00.375Z,8.50
2023-04-14T23:57:08.974Z,7.10
